Time;durP1;ratioP1;P1;durP2;ratioP2;P2;SDS_P1;SDS_P2;PMS_P1;PMS_P2;Temp;Humidity;BMP_temperature;BMP_pressure;BME280_temperature;BME280_humidity;BME280_pressure;Samples;Min_cycle;Max_cycle;Signal;HPM_P1;HPM_P2
2023/05/20 00:01:06;;;;;;;13.40;9.00;;;;;;;18.81;61.13;101279.40;109160;1254;65849;-58
2023/05/20 00:03:33;;;;;;;11.30;9.10;;;;;;;18.81;60.98;101278.48;109017;1253;63580;-57
2023/05/20 00:06:00;;;;;;;11.50;9.10;;;;;;;18.79;61.01;101277.98;108975;1254;65146;-58
2023/05/20 00:08:27;;;;;;;19.80;10.00;;;;;;;18.76;60.97;101273.70;109044;1254;59285;-56
2023/05/20 00:10:54;;;;;;;11.30;8.50;;;;;;;18.71;60.97;101271.48;109158;1251;59006;-55
2023/05/20 00:13:23;;;;;;;13.30;8.60;;;;;;;18.67;60.99;101269.65;109020;1254;67726;-56
2023/05/20 00:15:51;;;;;;;10.40;7.80;;;;;;;18.67;61.10;101269.63;109211;1251;63198;-56
2023/05/20 00:18:18;;;;;;;11.20;8.00;;;;;;;18.69;61.02;101270.29;109166;1251;64988;-58
2023/05/20 00:20:45;;;;;;;13.40;8.40;;;;;;;18.68;61.00;101272.16;109061;1253;58584;-58
2023/05/20 00:23:12;;;;;;;11.10;8.70;;;;;;;18.66;61.05;101271.67;109166;1254;61085;-59
2023/05/20 00:25:39;;;;;;;12.90;8.80;;;;;;;18.63;61.19;101273.55;109183;1256;75709;-57
2023/05/20 00:28:06;;;;;;;10.20;7.80;;;;;;;18.60;61.27;101276.02;109166;1252;62829;-58
2023/05/20 00:30:33;;;;;;;10.90;7.50;;;;;;;18.57;61.25;101274.83;109114;1254;64968;-57
2023/05/20 00:33:00;;;;;;;11.20;7.70;;;;;;;18.59;61.33;101274.01;109140;1253;58242;-56
2023/05/20 00:35:27;;;;;;;9.80;7.70;;;;;;;18.62;61.32;101273.71;109185;1253;58231;-58
2023/05/20 00:37:54;;;;;;;10.20;7.90;;;;;;;18.62;61.31;101273.27;109128;1254;66005;-57
2023/05/20 00:40:22;;;;;;;10.50;7.60;;;;;;;18.62;61.11;101277.04;109161;1254;63336;-57
2023/05/20 00:42:49;;;;;;;9.70;7.80;;;;;;;18.59;61.19;101276.95;109149;1254;64863;-58
2023/05/20 00:45:16;;;;;;;9.50;7.50;;;;;;;18.56;61.11;101274.27;109210;1254;58241;-57
2023/05/20 00:47:43;;;;;;;9.90;7.90;;;;;;;18.54;61.02;101273.55;109133;1254;58670;-57
2023/05/20 00:50:10;;;;;;;9.80;7.60;;;;;;;18.57;61.05;101271.14;108997;1258;66296;-57
2023/05/20 00:52:38;;;;;;;8.40;6.70;;;;;;;18.61;61.15;101276.27;109116;1254;63745;-59
2023/05/20 00:55:05;;;;;;;10.30;6.90;;;;;;;18.62;61.08;101275.12;109235;1251;66663;-58
2023/05/20 00:57:32;;;;;;;10.70;7.50;;;;;;;18.62;61.08;101272.05;108917;1251;59109;-57
2023/05/20 00:59:59;;;;;;;8.40;7.00;;;;;;;18.63;61.05;101272.29;109135;1251;58944;-56
2023/05/20 01:02:26;;;;;;;9.50;6.70;;;;;;;18.63;60.96;101263.59;109191;1254;68879;-57
2023/05/20 01:04:55;;;;;;;14.50;6.70;;;;;;;18.67;60.76;101258.98;109160;1254;64098;-57
2023/05/20 01:07:22;;;;;;;12.00;7.10;;;;;;;18.70;60.76;101254.89;109138;1254;65176;-57
2023/05/20 01:09:51;;;;;;;9.50;6.80;;;;;;;18.69;60.61;101254.89;109115;1254;58196;-57
2023/05/20 01:12:28;;;;;;;9.60;7.00;;;;;;;18.66;60.85;101250.55;109095;1251;58815;-57
2023/05/20 01:15:15;;;;;;;10.10;6.60;;;;;;;18.64;60.88;101251.59;109169;1254;67308;-57
2023/05/20 01:17:46;;;;;;;8.80;7.10;;;;;;;18.62;60.90;101249.31;109111;1251;62852;-57
2023/05/20 01:20:13;;;;;;;9.20;6.70;;;;;;;18.63;60.85;101247.39;109015;1258;65372;-57
2023/05/20 01:22:53;;;;;;;10.00;6.70;;;;;;;18.66;60.89;101245.95;109114;1256;58603;-57
2023/05/20 01:25:20;;;;;;;9.80;7.00;;;;;;;18.65;60.80;101244.75;109149;1254;58612;-57
2023/05/20 01:27:47;;;;;;;8.60;6.80;;;;;;;18.63;60.82;101247.80;109133;1251;67022;-58
2023/05/20 01:30:15;;;;;;;9.90;7.10;;;;;;;18.60;60.85;101244.06;109050;1251;76690;-57
2023/05/20 01:32:46;;;;;;;13.00;7.20;;;;;;;18.58;60.80;101246.91;109127;1256;66118;-56
2023/05/20 01:35:14;;;;;;;9.80;7.20;;;;;;;18.58;60.73;101244.92;108998;1254;58488;-57
2023/05/20 01:37:41;;;;;;;8.60;6.60;;;;;;;18.60;60.80;101241.84;109010;1252;58340;-58
2023/05/20 01:40:09;;;;;;;13.20;7.20;;;;;;;18.62;60.84;101242.05;108933;1254;67189;-57
2023/05/20 01:42:36;;;;;;;9.00;7.20;;;;;;;18.60;60.71;101242.77;108986;1251;62842;-57
2023/05/20 01:45:03;;;;;;;8.60;6.60;;;;;;;18.51;60.66;101246.90;109112;1254;66210;-58
2023/05/20 01:47:30;;;;;;;9.90;6.80;;;;;;;18.41;60.84;101251.41;109045;1254;58291;-56
2023/05/20 01:49:57;;;;;;;9.40;7.20;;;;;;;18.34;60.90;101249.48;109067;1256;58512;-57
2023/05/20 01:52:26;;;;;;;7.50;5.60;;;;;;;18.34;60.76;101250.85;109156;1253;66047;-57
2023/05/20 01:54:53;;;;;;;11.40;6.30;;;;;;;18.38;60.77;101252.39;109143;1251;63488;-56
2023/05/20 01:57:21;;;;;;;10.00;6.50;;;;;;;18.41;60.61;101256.42;109118;1255;66124;-56
2023/05/20 01:59:48;;;;;;;10.10;6.60;;;;;;;18.41;60.50;101258.17;109041;1254;58579;-56
2023/05/20 02:02:15;;;;;;;9.80;6.50;;;;;;;18.39;60.32;101260.48;108961;1257;62245;-58
2023/05/20 02:04:46;;;;;;;8.90;5.80;;;;;;;18.36;60.44;101259.70;109147;1252;67369;-56
2023/05/20 02:07:37;;;;;;;8.60;6.00;;;;;;;18.32;60.30;101260.29;109152;1251;60425;-57
2023/05/20 02:10:05;;;;;;;8.50;7.00;;;;;;;18.33;60.40;101258.73;109123;1253;66447;-57
2023/05/20 02:12:32;;;;;;;7.90;5.70;;;;;;;18.34;60.20;101261.67;109170;1255;58545;-58
2023/05/20 02:14:59;;;;;;;10.10;5.90;;;;;;;18.32;60.26;101258.36;109154;1254;58419;-56
2023/05/20 02:17:27;;;;;;;9.90;6.20;;;;;;;18.29;60.41;101258.16;109171;1256;67161;-57
2023/05/20 02:19:56;;;;;;;8.50;6.10;;;;;;;18.27;60.50;101260.41;109062;1251;62694;-57
2023/05/20 02:22:23;;;;;;;9.30;6.70;;;;;;;18.25;60.36;101261.16;109009;1251;64978;-56
2023/05/20 02:24:50;;;;;;;10.50;6.00;;;;;;;18.23;60.40;101259.38;109150;1254;58763;-56
2023/05/20 02:27:17;;;;;;;8.20;5.90;;;;;;;18.24;60.38;101258.02;109156;1251;60227;-56
2023/05/20 02:29:44;;;;;;;9.50;5.80;;;;;;;18.28;60.31;101255.75;109200;1251;66080;-56
2023/05/20 02:32:11;;;;;;;9.00;6.10;;;;;;;18.26;60.04;101252.57;109357;1251;62620;-57
2023/05/20 02:34:38;;;;;;;8.60;6.20;;;;;;;18.20;59.87;101253.14;109085;1254;66161;-57
2023/05/20 02:37:05;;;;;;;10.90;6.20;;;;;;;18.16;59.92;101252.27;109091;1253;59872;-56
2023/05/20 02:39:32;;;;;;;7.80;6.30;;;;;;;18.12;59.91;101252.89;109074;1255;58728;-57
2023/05/20 02:41:59;;;;;;;10.50;5.90;;;;;;;18.06;60.04;101256.83;109146;1256;67290;-58
2023/05/20 02:44:26;;;;;;;7.50;5.50;;;;;;;18.05;59.97;101259.81;109105;1251;62608;-56
2023/05/20 02:46:53;;;;;;;7.80;5.80;;;;;;;18.04;59.65;101262.34;108987;1251;66187;-57
2023/05/20 02:49:20;;;;;;;8.50;6.00;;;;;;;18.01;59.75;101265.30;109076;1257;58577;-56
2023/05/20 02:51:47;;;;;;;11.20;5.70;;;;;;;17.99;59.59;101268.65;109009;1254;58753;-57
2023/05/20 02:54:15;;;;;;;8.60;6.20;;;;;;;17.97;59.58;101270.46;109060;1251;67295;-57
2023/05/20 02:56:41;;;;;;;6.80;5.00;;;;;;;17.95;59.61;101272.66;109127;1251;62724;-56
2023/05/20 02:59:08;;;;;;;10.40;5.20;;;;;;;17.96;59.56;101275.56;108990;1250;65201;-56
2023/05/20 03:01:35;;;;;;;7.10;5.00;;;;;;;18.00;59.47;101278.14;109105;1256;58641;-57
2023/05/20 03:04:03;;;;;;;9.90;5.50;;;;;;;18.03;59.48;101277.71;109094;1251;58630;-57
2023/05/20 03:06:33;;;;;;;9.10;6.20;;;;;;;18.06;59.48;101279.96;109188;1256;67086;-57
2023/05/20 03:09:00;;;;;;;9.30;5.40;;;;;;;18.07;59.17;101280.86;108975;1256;63848;-57
2023/05/20 03:11:28;;;;;;;10.80;5.90;;;;;;;18.06;59.21;101283.41;109132;1252;66762;-58
2023/05/20 03:13:55;;;;;;;8.70;5.50;;;;;;;18.05;59.36;101283.41;109027;1251;58425;-57
2023/05/20 03:16:24;;;;;;;7.70;5.70;;;;;;;18.06;59.15;101283.61;109098;1257;58174;-57
2023/05/20 03:18:51;;;;;;;10.80;6.30;;;;;;;18.10;59.14;101286.44;109178;1251;67560;-57
2023/05/20 03:21:18;;;;;;;8.10;5.60;;;;;;;18.11;59.11;101291.64;109274;1256;63609;-57
2023/05/20 03:23:45;;;;;;;9.00;5.40;;;;;;;18.12;59.32;101294.89;109094;1257;65929;-57
2023/05/20 03:26:12;;;;;;;10.10;5.80;;;;;;;18.14;59.12;101299.30;109039;1254;58725;-57
2023/05/20 03:28:39;;;;;;;9.30;6.10;;;;;;;18.14;59.16;101298.13;109150;1251;59701;-56
2023/05/20 03:31:07;;;;;;;10.20;5.50;;;;;;;18.11;59.07;101295.38;109195;1257;67330;-58
2023/05/20 03:33:34;;;;;;;9.30;6.10;;;;;;;18.13;58.90;101294.80;109125;1251;62511;-58
2023/05/20 03:36:02;;;;;;;8.60;5.70;;;;;;;18.18;59.15;101292.89;109165;1251;67022;-56
2023/05/20 03:38:29;;;;;;;8.40;6.10;;;;;;;18.21;58.91;101291.88;109139;1257;58206;-58
2023/05/20 03:40:56;;;;;;;9.50;6.70;;;;;;;18.21;58.72;101294.92;109098;1251;59122;-57
2023/05/20 03:43:24;;;;;;;7.80;5.60;;;;;;;18.20;58.84;101298.09;109012;1255;67490;-57
2023/05/20 03:45:51;;;;;;;7.40;5.70;;;;;;;18.16;58.82;101298.79;109170;1251;63708;-56
2023/05/20 03:48:18;;;;;;;8.40;6.00;;;;;;;18.13;58.93;101297.46;109094;1251;66171;-56
2023/05/20 03:50:46;;;;;;;11.20;6.10;;;;;;;18.17;58.88;101295.34;109065;1259;58470;-58
2023/05/20 03:53:13;;;;;;;7.20;5.70;;;;;;;18.22;58.63;101294.02;109150;1250;58820;-56
2023/05/20 03:55:41;;;;;;;8.80;6.60;;;;;;;18.24;58.72;101297.73;108967;1251;68133;-56
2023/05/20 03:58:08;;;;;;;10.50;6.30;;;;;;;18.26;58.84;101297.66;109102;1251;62890;-56
2023/05/20 04:00:35;;;;;;;8.00;5.90;;;;;;;18.29;58.74;101297.39;109032;1254;65211;-56
2023/05/20 04:03:03;;;;;;;9.90;6.50;;;;;;;18.30;58.64;101296.90;109196;1253;58349;-57
2023/05/20 04:05:30;;;;;;;8.10;5.30;;;;;;;18.28;58.50;101301.32;109147;1251;58463;-57
2023/05/20 04:07:59;;;;;;;7.70;5.50;;;;;;;18.25;58.52;101299.95;109009;1251;67559;-58
2023/05/20 04:10:26;;;;;;;9.80;6.70;;;;;;;18.26;58.42;101303.92;109095;1251;63786;-56
2023/05/20 04:12:53;;;;;;;10.10;6.40;;;;;;;18.28;58.44;101307.54;109119;1254;66163;-56
2023/05/20 04:15:22;;;;;;;10.10;6.40;;;;;;;18.30;58.46;101311.95;109094;1251;58551;-57
2023/05/20 04:17:53;;;;;;;9.70;5.90;;;;;;;18.32;58.35;101311.14;109092;1251;58249;-57
2023/05/20 04:20:20;;;;;;;9.40;6.80;;;;;;;18.35;58.55;101312.05;109026;1254;68119;-57
2023/05/20 04:22:47;;;;;;;9.30;6.00;;;;;;;18.35;58.29;101307.18;109072;1251;63746;-57
2023/05/20 04:25:24;;;;;;;10.00;6.30;;;;;;;18.32;58.36;101307.48;108980;1254;67154;-57
2023/05/20 04:27:53;;;;;;;9.00;5.40;;;;;;;18.31;58.62;101309.27;109015;1251;59923;-57
2023/05/20 04:30:20;;;;;;;9.40;5.70;;;;;;;18.34;58.40;101311.09;109122;1251;58362;-57
2023/05/20 04:32:49;;;;;;;12.00;6.00;;;;;;;18.37;58.27;101318.73;109077;1251;67247;-57
2023/05/20 04:35:16;;;;;;;8.30;5.80;;;;;;;18.38;58.34;101323.80;109084;1251;64149;-57
2023/05/20 04:37:46;;;;;;;9.40;5.40;;;;;;;18.41;58.36;101327.27;109077;1251;66388;-58
2023/05/20 04:40:14;;;;;;;9.60;5.50;;;;;;;18.42;58.23;101325.20;109166;1257;58249;-57
2023/05/20 04:42:42;;;;;;;8.90;6.00;;;;;;;18.43;58.18;101327.66;109099;1251;60351;-57
2023/05/20 04:45:11;;;;;;;10.10;6.00;;;;;;;18.40;58.13;101327.17;109077;1251;66245;-58
2023/05/20 04:47:38;;;;;;;7.30;5.20;;;;;;;18.42;58.33;101327.36;109146;1252;63361;-58
2023/05/20 04:50:09;;;;;;;9.50;5.60;;;;;;;18.48;58.18;101329.82;109170;1251;66399;-57
2023/05/20 04:52:40;;;;;;;7.80;5.40;;;;;;;18.49;57.99;101324.88;108694;1260;58344;-57
2023/05/20 04:55:10;;;;;;;9.40;5.60;;;;;;;18.48;58.06;101321.06;108789;1256;58508;-56
2023/05/20 04:57:40;;;;;;;9.90;6.40;;;;;;;18.48;58.45;101326.22;108752;1257;66257;-55
2023/05/20 05:00:09;;;;;;;9.40;6.20;;;;;;;18.51;58.48;101327.91;108706;1257;62464;-56
2023/05/20 05:02:36;;;;;;;11.50;6.50;;;;;;;18.52;57.74;101326.36;108647;1260;66085;-56
2023/05/20 05:05:04;;;;;;;8.30;5.80;;;;;;;18.50;57.56;101328.02;108774;1257;59292;-57
2023/05/20 05:07:31;;;;;;;10.10;6.40;;;;;;;18.49;57.87;101331.48;108676;1257;58030;-56
2023/05/20 05:09:58;;;;;;;8.20;5.70;;;;;;;18.56;58.24;101333.80;108491;1254;321522;-57
2023/05/20 05:13:38;;;;;;;9.00;5.40;;;;;;;18.53;58.33;101330.95;102059;1291;599688;-57
2023/05/20 05:16:05;;;;;;;7.70;5.40;;;;;;;18.73;57.24;101333.49;104424;1267;59524;-57
2023/05/20 05:18:33;;;;;;;8.00;6.00;;;;;;;18.71;57.07;101336.06;108251;1264;57108;-57
2023/05/20 05:21:01;;;;;;;10.90;5.40;;;;;;;18.66;57.37;101333.19;108470;1261;65423;-57
2023/05/20 05:23:28;;;;;;;9.70;6.10;;;;;;;18.66;57.56;101335.16;108419;1263;63861;-57
2023/05/20 05:25:56;;;;;;;11.20;5.90;;;;;;;18.63;57.37;101340.89;108485;1261;65787;-57
2023/05/20 05:28:23;;;;;;;8.20;5.60;;;;;;;18.60;57.17;101339.96;108466;1260;58373;-57
2023/05/20 05:30:50;;;;;;;8.30;6.10;;;;;;;18.63;57.26;101339.30;108657;1264;57181;-58
2023/05/20 05:33:17;;;;;;;9.60;6.40;;;;;;;18.67;57.11;101343.90;108651;1261;64650;-57
2023/05/20 05:35:44;;;;;;;7.60;5.60;;;;;;;18.68;57.16;101343.14;108555;1265;65803;-57
2023/05/20 05:38:11;;;;;;;10.80;6.20;;;;;;;18.71;57.51;101344.36;108569;1261;66528;-58
2023/05/20 05:40:38;;;;;;;10.70;5.40;;;;;;;18.78;57.75;101346.05;108506;1258;59164;-57
2023/05/20 05:43:05;;;;;;;9.30;5.70;;;;;;;18.84;57.34;101344.52;108544;1258;59604;-57
2023/05/20 05:45:33;;;;;;;8.30;5.50;;;;;;;18.91;57.04;101348.64;108521;1266;66490;-58
2023/05/20 05:48:00;;;;;;;6.50;4.60;;;;;;;18.96;56.83;101349.54;104403;1257;63897;-56
2023/05/20 05:50:27;;;;;;;8.70;5.20;;;;;;;19.05;56.72;101354.71;104257;1266;64939;-55
2023/05/20 05:52:55;;;;;;;11.40;5.10;;;;;;;19.13;55.91;101349.27;104512;1259;61072;-56
2023/05/20 05:55:22;;;;;;;8.80;5.20;;;;;;;19.17;55.89;101348.58;104446;1266;59618;-55
2023/05/20 05:57:50;;;;;;;9.10;5.40;;;;;;;19.21;55.91;101350.06;108550;1258;66282;-55
2023/05/20 06:00:17;;;;;;;7.10;4.70;;;;;;;19.24;55.74;101349.09;108520;1258;62654;-55
2023/05/20 06:02:45;;;;;;;11.00;5.40;;;;;;;19.26;55.65;101346.89;108560;1260;66172;-55
2023/05/20 06:05:13;;;;;;;7.30;5.00;;;;;;;19.29;55.67;101346.28;108521;1257;61203;-55
2023/05/20 06:07:40;;;;;;;8.90;5.00;;;;;;;19.34;55.72;101344.02;108579;1257;59817;-56
2023/05/20 06:10:09;;;;;;;8.90;5.20;;;;;;;19.40;55.33;101340.70;108544;1261;64882;-55
2023/05/20 06:12:36;;;;;;;7.00;4.90;;;;;;;19.44;55.28;101340.77;108547;1263;64249;-55
2023/05/20 06:15:03;;;;;;;7.10;4.70;;;;;;;19.53;54.85;101337.63;108533;1261;66588;-55
2023/05/20 06:17:30;;;;;;;7.30;4.50;;;;;;;19.60;54.41;101336.70;108488;1261;60013;-55
2023/05/20 06:19:57;;;;;;;6.10;4.80;;;;;;;19.64;53.96;101332.55;108826;1257;57645;-55
2023/05/20 06:22:24;;;;;;;8.40;5.20;;;;;;;19.65;53.77;101336.66;108755;1260;65466;-54
2023/05/20 06:24:52;;;;;;;8.50;5.20;;;;;;;19.68;53.94;101339.77;108732;1257;62284;-55
2023/05/20 06:27:19;;;;;;;9.10;6.00;;;;;;;19.73;53.92;101336.13;108671;1259;66386;-55
2023/05/20 06:29:46;;;;;;;9.30;6.00;;;;;;;19.75;53.55;101336.92;108707;1255;57726;-55
2023/05/20 06:32:13;;;;;;;8.80;5.30;;;;;;;19.80;53.35;101335.55;108667;1257;57802;-56
2023/05/20 06:34:40;;;;;;;7.40;5.90;;;;;;;19.85;53.49;101336.05;108696;1262;66696;-55
2023/05/20 06:37:07;;;;;;;8.60;6.20;;;;;;;19.92;53.35;101334.86;108772;1262;62896;-56
2023/05/20 06:39:35;;;;;;;7.30;5.40;;;;;;;19.97;53.18;101334.46;108672;1257;65146;-56
2023/05/20 06:42:02;;;;;;;7.30;4.80;;;;;;;20.03;53.20;101334.02;108736;1257;59643;-56
2023/05/20 06:44:33;;;;;;;8.20;5.00;;;;;;;20.10;52.63;101328.69;108727;1255;57682;-56
2023/05/20 06:47:13;;;;;;;7.80;5.20;;;;;;;20.15;51.83;101327.94;108775;1257;67643;-56
2023/05/20 06:49:42;;;;;;;8.90;5.00;;;;;;;20.19;50.67;101328.41;108771;1257;63796;-56
2023/05/20 06:52:13;;;;;;;8.40;4.90;;;;;;;20.21;50.32;101335.00;108786;1257;66014;-56
2023/05/20 06:54:40;;;;;;;9.60;5.00;;;;;;;20.23;50.53;101335.65;108691;1257;57741;-56
2023/05/20 06:57:09;;;;;;;8.10;4.40;;;;;;;20.27;50.29;101331.84;108729;1257;58997;-56
2023/05/20 06:59:36;;;;;;;6.80;4.00;;;;;;;20.31;49.66;101330.04;108799;1258;65440;-56
2023/05/20 07:02:04;;;;;;;6.60;4.00;;;;;;;20.35;49.16;101331.17;108759;1256;64464;-56
2023/05/20 07:04:31;;;;;;;7.40;4.80;;;;;;;20.38;49.08;101331.19;108826;1257;74618;-56
2023/05/20 07:06:58;;;;;;;10.20;4.70;;;;;;;20.41;49.42;101333.41;108747;1258;57962;-56
2023/05/20 07:09:25;;;;;;;7.60;4.60;;;;;;;20.45;49.55;101336.05;108832;1258;57854;-56
2023/05/20 07:11:52;;;;;;;9.90;4.70;;;;;;;20.48;49.05;101336.72;108737;1257;67976;-56
2023/05/20 07:14:20;;;;;;;7.60;5.00;;;;;;;20.49;48.22;101337.71;108744;1262;66280;-58
2023/05/20 07:16:47;;;;;;;7.90;4.70;;;;;;;20.51;48.27;101338.81;108702;1257;65007;-56
2023/05/20 07:19:14;;;;;;;9.00;5.10;;;;;;;20.53;48.26;101342.25;108683;1257;57824;-57
2023/05/20 07:21:41;;;;;;;8.70;5.60;;;;;;;20.53;48.17;101341.33;108592;1257;57443;-56
2023/05/20 07:24:31;;;;;;;9.70;4.90;;;;;;;20.57;48.42;101340.59;108627;1258;66361;-57
2023/05/20 07:26:58;;;;;;;7.80;4.90;;;;;;;20.60;48.23;101338.16;108727;1257;64194;-54
2023/05/20 07:29:26;;;;;;;8.70;5.20;;;;;;;20.62;48.11;101330.84;108837;1257;64054;-56
2023/05/20 07:31:53;;;;;;;8.40;5.30;;;;;;;20.64;47.95;101337.61;108727;1263;57972;-55
2023/05/20 07:34:21;;;;;;;7.10;4.70;;;;;;;20.65;48.30;101333.83;108772;1258;58217;-57
2023/05/20 07:36:50;;;;;;;8.60;4.10;;;;;;;20.72;48.40;101336.89;108731;1257;66708;-58
2023/05/20 07:39:17;;;;;;;11.70;5.00;;;;;;;20.78;47.61;101336.96;108730;1261;64343;-57
2023/05/20 07:41:44;;;;;;;10.10;5.40;;;;;;;20.83;47.40;101333.73;108740;1257;65896;-54
2023/05/20 07:44:12;;;;;;;10.90;4.60;;;;;;;20.86;47.21;101329.53;108744;1257;57884;-58
2023/05/20 07:46:43;;;;;;;7.50;4.80;;;;;;;20.89;47.06;101325.95;108703;1260;58225;-57
2023/05/20 07:49:11;;;;;;;7.40;5.00;;;;;;;20.91;46.36;101325.88;108778;1257;66092;-56
2023/05/20 07:51:38;;;;;;;11.50;5.40;;;;;;;20.93;45.78;101324.61;108682;1257;62770;-57
2023/05/20 07:54:06;;;;;;;7.40;4.60;;;;;;;20.96;45.77;101327.46;108670;1258;67045;-57
2023/05/20 07:56:33;;;;;;;8.70;4.70;;;;;;;21.03;45.85;101330.16;108660;1257;59549;-57
2023/05/20 07:59:02;;;;;;;12.70;7.50;;;;;;;21.07;44.51;101328.75;108664;1257;57955;-57
2023/05/20 08:01:34;;;;;;;10.10;7.00;;;;;;;21.10;44.26;101326.30;108804;1256;66849;-57
2023/05/20 08:04:03;;;;;;;8.70;5.70;;;;;;;21.13;44.60;101327.27;108712;1258;63740;-57
2023/05/20 08:06:31;;;;;;;8.50;5.40;;;;;;;21.17;44.00;101326.26;108715;1260;62919;-57
2023/05/20 08:09:00;;;;;;;9.70;6.00;;;;;;;21.19;43.34;101328.05;108685;1257;57911;-56
2023/05/20 08:11:31;;;;;;;8.80;5.60;;;;;;;21.21;44.03;101325.42;108552;1260;57617;-56
2023/05/20 08:13:58;;;;;;;8.40;5.80;;;;;;;21.27;44.63;101324.98;104730;1260;65442;-55
2023/05/20 08:16:27;;;;;;;10.30;6.00;;;;;;;21.33;43.73;101322.02;104578;1258;62471;-56
2023/05/20 08:18:54;;;;;;;11.50;5.70;;;;;;;21.36;43.37;101322.22;104568;1258;67171;-55
2023/05/20 08:21:21;;;;;;;8.10;5.50;;;;;;;21.36;43.41;101326.29;104599;1259;60608;-57
2023/05/20 08:23:48;;;;;;;8.90;5.40;;;;;;;21.38;43.85;101323.75;104686;1260;59623;-57
2023/05/20 08:26:16;;;;;;;8.70;5.90;;;;;;;21.41;43.00;101316.84;108752;1258;66570;-57
2023/05/20 08:28:43;;;;;;;9.30;5.50;;;;;;;21.43;41.70;101317.48;108691;1258;63808;-57
2023/05/20 08:31:10;;;;;;;7.30;4.90;;;;;;;21.47;41.83;101320.06;108651;1257;66195;-57
2023/05/20 08:33:37;;;;;;;8.60;5.30;;;;;;;21.54;41.78;101315.77;108770;1260;57620;-56
2023/05/20 08:36:07;;;;;;;8.00;5.20;;;;;;;21.62;41.75;101313.64;108716;1255;57781;-57
2023/05/20 08:38:44;;;;;;;10.80;6.10;;;;;;;21.70;41.83;101310.96;108729;1257;65326;-58
2023/05/20 08:41:17;;;;;;;9.90;5.20;;;;;;;21.76;41.11;101307.92;108712;1256;63259;-56
2023/05/20 08:43:45;;;;;;;7.40;4.90;;;;;;;21.81;40.65;101312.15;108342;1256;65673;-56
2023/05/20 08:46:13;;;;;;;13.00;5.60;;;;;;;21.84;40.82;101312.64;108630;1257;58352;-56
2023/05/20 08:48:43;;;;;;;7.50;5.50;;;;;;;21.86;40.83;101309.10;108717;1254;58137;-56
2023/05/20 08:51:11;;;;;;;12.50;5.70;;;;;;;21.89;40.30;101304.48;108923;1254;66530;-56
2023/05/20 08:53:38;;;;;;;7.60;4.80;;;;;;;21.94;40.00;101310.09;108950;1255;63544;-56
2023/05/20 08:56:06;;;;;;;14.90;5.60;;;;;;;22.00;39.99;101311.10;108975;1257;64899;-58
2023/05/20 08:58:33;;;;;;;8.30;4.90;;;;;;;22.09;40.26;101316.20;108773;1254;58240;-58
2023/05/20 09:01:00;;;;;;;8.50;5.30;;;;;;;22.17;38.76;101316.53;108899;1254;57960;-56
2023/05/20 09:03:28;;;;;;;9.40;5.10;;;;;;;22.20;38.42;101311.67;108825;1254;66239;-55
2023/05/20 09:06:03;;;;;;;7.90;4.70;;;;;;;22.23;39.34;101311.89;108874;1254;62719;-57
2023/05/20 09:08:30;;;;;;;7.60;4.30;;;;;;;22.29;39.33;101307.45;109080;1251;66107;-59
2023/05/20 09:10:57;;;;;;;13.90;4.50;;;;;;;22.36;38.10;101307.15;109013;1254;59051;-55
2023/05/20 09:13:24;;;;;;;11.60;4.10;;;;;;;22.41;37.34;101310.91;109136;1251;57603;-54
2023/05/20 09:15:51;;;;;;;7.30;4.60;;;;;;;22.45;37.21;101308.87;109125;1251;65745;-57
2023/05/20 09:18:18;;;;;;;6.90;4.10;;;;;;;22.47;36.88;101306.52;109218;1253;63597;-49
2023/05/20 09:20:47;;;;;;;6.70;3.90;;;;;;;22.48;36.65;101306.70;109213;1254;65064;-48
2023/05/20 09:23:14;;;;;;;6.80;3.80;;;;;;;22.50;36.88;101311.89;108990;1253;58559;-49
2023/05/20 09:25:41;;;;;;;8.10;3.80;;;;;;;22.51;36.41;101312.45;109204;1257;58321;-49
2023/05/20 09:28:08;;;;;;;10.10;3.70;;;;;;;22.53;36.19;101314.88;109213;1251;67019;-49
2023/05/20 09:30:35;;;;;;;8.70;3.60;;;;;;;22.56;35.62;101316.13;109172;1251;63988;-48
2023/05/20 09:33:03;;;;;;;6.30;3.60;;;;;;;22.60;36.15;101319.21;109122;1251;66162;-48
2023/05/20 09:35:34;;;;;;;7.90;3.50;;;;;;;22.68;35.48;101315.16;109178;1251;58219;-48
2023/05/20 09:38:02;;;;;;;5.90;3.20;;;;;;;22.73;35.31;101311.67;109213;1251;58794;-49
2023/05/20 09:40:29;;;;;;;7.20;3.60;;;;;;;22.76;35.29;101311.68;109184;1251;65946;-48
2023/05/20 09:43:02;;;;;;;7.20;3.50;;;;;;;22.82;36.14;101316.90;109115;1251;62801;-48
2023/05/20 09:45:30;;;;;;;11.50;3.20;;;;;;;22.87;35.28;101309.34;109105;1256;66296;-48
2023/05/20 09:47:56;;;;;;;6.40;3.10;;;;;;;22.91;34.24;101307.83;109151;1251;58229;-49
2023/05/20 09:50:24;;;;;;;7.10;3.10;;;;;;;22.92;33.54;101304.80;109223;1251;58464;-49
2023/05/20 09:52:51;;;;;;;6.50;3.30;;;;;;;22.99;33.96;101309.71;109021;1251;66004;-49
2023/05/20 09:55:22;;;;;;;8.50;3.00;;;;;;;23.08;33.83;101306.32;109167;1251;63751;-48
2023/05/20 09:57:49;;;;;;;7.40;3.40;;;;;;;23.12;33.79;101306.35;109170;1251;65067;-49
2023/05/20 10:00:16;;;;;;;7.20;3.40;;;;;;;23.16;33.81;101305.20;109139;1251;58357;-49
2023/05/20 10:02:44;;;;;;;5.30;3.30;;;;;;;23.21;34.42;101299.20;109117;1257;58616;-49
2023/05/20 10:05:28;;;;;;;5.90;3.40;;;;;;;23.26;33.82;101292.26;109148;1251;66191;-52
2023/05/20 10:08:00;;;;;;;7.50;3.60;;;;;;;23.31;34.22;101296.71;109163;1251;63874;-49
2023/05/20 10:10:43;;;;;;;9.30;3.30;;;;;;;23.38;34.13;101296.67;109183;1254;66432;-49
2023/05/20 10:13:13;;;;;;;5.70;3.00;;;;;;;23.46;33.52;101296.05;109145;1254;58609;-48
2023/05/20 10:15:47;;;;;;;5.60;2.90;;;;;;;23.52;32.86;101297.30;109092;1254;61162;-49
2023/05/20 10:18:38;;;;;;;5.50;2.70;;;;;;;23.56;32.59;101292.32;108935;1254;66283;-48
2023/05/20 10:21:17;;;;;;;10.20;2.90;;;;;;;23.58;32.68;101294.39;109123;1254;64451;-49
2023/05/20 10:23:44;;;;;;;8.60;2.40;;;;;;;23.62;32.84;101299.48;109130;1254;66047;-48
2023/05/20 10:26:11;;;;;;;7.80;2.70;;;;;;;23.69;31.99;101302.55;108899;1254;58485;-49
2023/05/20 10:28:39;;;;;;;6.70;2.70;;;;;;;23.77;31.23;101297.20;109152;1253;59534;-51
2023/05/20 10:31:22;;;;;;;6.30;2.60;;;;;;;23.77;31.66;101292.27;109136;1251;66311;-49
2023/05/20 10:33:51;;;;;;;5.50;2.70;;;;;;;23.86;31.52;101292.69;109112;1254;64869;-49
2023/05/20 10:36:25;;;;;;;5.40;2.90;;;;;;;23.83;31.99;101297.34;109306;1254;65904;-49
2023/05/20 10:38:56;;;;;;;6.20;2.80;;;;;;;23.82;32.46;101294.74;109071;1253;58941;-49
2023/05/20 10:41:27;;;;;;;5.90;2.60;;;;;;;23.88;32.10;101292.04;109080;1251;58097;-49
2023/05/20 10:44:01;;;;;;;5.70;3.40;;;;;;;23.89;31.37;101285.06;109036;1254;75769;-49
2023/05/20 10:46:29;;;;;;;5.80;2.80;;;;;;;23.90;30.74;101284.41;109069;1253;64002;-50
2023/05/20 10:49:18;;;;;;;7.00;2.90;;;;;;;23.89;30.73;101283.02;109097;1254;66053;-50
2023/05/20 10:51:50;;;;;;;5.10;2.80;;;;;;;23.88;30.65;101285.23;109044;1254;58328;-50
2023/05/20 10:54:17;;;;;;;5.90;2.70;;;;;;;23.90;30.93;101281.95;109012;1253;58942;-49
2023/05/20 10:56:51;;;;;;;5.40;2.50;;;;;;;23.94;31.31;101282.91;109120;1253;65919;-49
2023/05/20 10:59:18;;;;;;;7.00;2.70;;;;;;;23.98;30.71;101285.23;109014;1254;62527;-50
2023/05/20 11:01:45;;;;;;;6.00;2.70;;;;;;;24.01;30.33;101289.38;109241;1254;66182;-51
2023/05/20 11:04:14;;;;;;;6.90;2.60;;;;;;;24.04;31.26;101291.27;109271;1253;58812;-51
2023/05/20 11:06:52;;;;;;;5.00;2.70;;;;;;;24.10;31.13;101288.46;108694;1252;58544;-52
2023/05/20 11:09:20;;;;;;;6.30;2.80;;;;;;;24.21;30.98;101281.05;109095;1253;66170;-50
2023/05/20 11:11:48;;;;;;;7.80;3.00;;;;;;;24.37;30.80;101278.09;109055;1253;62543;-50
2023/05/20 11:14:17;;;;;;;7.10;3.10;;;;;;;24.40;31.24;101274.29;109091;1253;66344;-50
2023/05/20 11:16:44;;;;;;;5.40;2.90;;;;;;;24.44;31.03;101272.42;109116;1251;59036;-49
2023/05/20 11:19:15;;;;;;;5.70;2.80;;;;;;;24.59;31.14;101272.13;109182;1251;59499;-51
2023/05/20 11:21:45;;;;;;;5.30;2.30;;;;;;;24.64;30.48;101268.66;109150;1251;69461;-49